Time;durP1;ratioP1;P1;durP2;ratioP2;P2;SDS_P1;SDS_P2;PMS_P1;PMS_P2;Temp;Humidity;BMP_temperature;BMP_pressure;BME280_temperature;BME280_humidity;BME280_pressure;Samples;Min_cycle;Max_cycle;Signal;HPM_P1;HPM_P2
2023/12/10 00:01:53;;;;;;;3.13;1.70;;;8.00;99.90;;;;;;5000901;28;20699;-74
2023/12/10 00:04:21;;;;;;;3.22;1.70;;;8.00;99.90;;;;;;5003921;28;20210;-74
2023/12/10 00:06:48;;;;;;;2.00;1.42;;;8.00;99.90;;;;;;5002379;28;20203;-74
2023/12/10 00:09:15;;;;;;;2.95;1.40;;;7.90;99.90;;;;;;5002344;28;20278;-74
2023/12/10 00:11:42;;;;;;;2.47;1.40;;;7.90;99.90;;;;;;5003030;28;20312;-74
2023/12/10 00:14:10;;;;;;;5.72;1.75;;;7.90;99.90;;;;;;5002103;28;20207;-74
2023/12/10 04:32:54;;;;;;;4.28;1.30;;;6.60;99.90;;;;;;4667532;22;20316;-74
2023/12/10 04:35:20;;;;;;;6.72;1.73;;;6.60;99.90;;;;;;5054058;28;20203;-74
2023/12/10 04:37:47;;;;;;;2.95;1.45;;;6.60;99.90;;;;;;5053384;28;20229;-72
2023/12/10 04:40:14;;;;;;;6.70;2.30;;;6.60;99.90;;;;;;5053979;28;20215;-73
2023/12/10 04:42:41;;;;;;;3.15;1.70;;;6.70;99.90;;;;;;5033917;28;20220;-73
2023/12/10 04:45:09;;;;;;;3.88;1.75;;;6.60;99.90;;;;;;5033976;28;20299;-72
2023/12/10 04:47:36;;;;;;;3.53;1.38;;;6.60;99.90;;;;;;5033024;28;20228;-72
2023/12/10 04:50:05;;;;;;;3.08;2.17;;;6.60;99.90;;;;;;5033555;28;20238;-73
2023/12/10 04:52:31;;;;;;;3.70;1.50;;;6.70;99.90;;;;;;5034233;28;20232;-72
2023/12/10 04:54:58;;;;;;;3.67;1.27;;;6.70;99.90;;;;;;5034040;28;20977;-73
2023/12/10 04:57:26;;;;;;;2.15;1.70;;;6.60;99.90;;;;;;5033677;28;20705;-72
2023/12/10 04:59:53;;;;;;;6.75;1.85;;;6.70;99.90;;;;;;5033530;28;20209;-72
2023/12/10 05:02:19;;;;;;;4.10;1.58;;;6.70;99.90;;;;;;5033467;28;20247;-72
2023/12/10 05:04:46;;;;;;;4.13;1.25;;;6.70;99.90;;;;;;5033751;28;20213;-72
2023/12/10 05:07:14;;;;;;;2.33;1.33;;;6.70;99.90;;;;;;5033633;28;20209;-72
2023/12/10 05:09:41;;;;;;;3.63;1.25;;;6.70;99.90;;;;;;5033506;28;20279;-72
2023/12/10 05:12:08;;;;;;;5.53;2.05;;;6.70;99.90;;;;;;5033535;28;20605;-72
2023/12/10 05:14:35;;;;;;;3.47;1.63;;;6.70;99.90;;;;;;5033878;28;20203;-72
2023/12/10 05:17:02;;;;;;;6.63;2.15;;;6.70;99.90;;;;;;5033054;28;20615;-72
2023/12/10 05:19:28;;;;;;;5.43;1.40;;;6.70;99.90;;;;;;5033502;28;20217;-72
2023/12/10 05:21:55;;;;;;;3.95;2.38;;;6.80;99.90;;;;;;5033400;28;20601;-72
2023/12/10 05:24:23;;;;;;;4.00;1.45;;;6.80;99.90;;;;;;5033495;28;20211;-72
2023/12/10 05:26:50;;;;;;;13.40;3.67;;;6.80;99.90;;;;;;5033188;28;20215;-72
2023/12/10 05:29:17;;;;;;;8.40;2.20;;;6.80;99.90;;;;;;5032796;28;20231;-72
2023/12/10 05:31:43;;;;;;;9.20;3.45;;;6.70;99.90;;;;;;5033079;28;20633;-71
2023/12/10 05:34:10;;;;;;;4.72;1.90;;;6.80;99.90;;;;;;5031963;28;20212;-71
2023/12/10 05:36:37;;;;;;;9.25;3.10;;;6.80;99.90;;;;;;5033464;28;20206;-71
2023/12/10 05:39:04;;;;;;;1.20;1.10;;;6.80;99.90;;;;;;5032818;28;20199;-70
2023/12/10 05:41:32;;;;;;;4.40;1.65;;;6.70;99.90;;;;;;5033270;28;20225;-71
2023/12/10 05:43:58;;;;;;;7.63;2.67;;;6.80;99.90;;;;;;5032765;28;20691;-71
2023/12/10 05:46:25;;;;;;;3.90;1.77;;;6.80;99.90;;;;;;5032656;28;20217;-71
2023/12/10 05:48:52;;;;;;;2.05;1.30;;;6.80;99.90;;;;;;5032524;28;20210;-71
2023/12/10 05:51:18;;;;;;;2.97;1.40;;;6.70;99.90;;;;;;5032873;28;20222;-71
2023/12/10 05:53:46;;;;;;;11.27;1.65;;;6.70;99.90;;;;;;5032746;28;20207;-71
2023/12/10 05:56:13;;;;;;;4.80;2.08;;;6.70;99.90;;;;;;5032419;28;20208;-72
2023/12/10 05:58:41;;;;;;;3.92;1.42;;;6.70;99.90;;;;;;5032392;28;20229;-71
2023/12/10 06:01:07;;;;;;;4.35;1.20;;;6.70;99.90;;;;;;5032669;28;20578;-70
2023/12/10 06:03:34;;;;;;;6.00;1.38;;;6.70;99.90;;;;;;5032968;28;20204;-71
2023/12/10 06:06:01;;;;;;;4.00;1.45;;;6.70;99.90;;;;;;5032458;28;20209;-71
2023/12/10 06:08:27;;;;;;;14.10;2.80;;;6.70;99.90;;;;;;5032722;28;20209;-71
2023/12/10 06:10:54;;;;;;;2.25;1.20;;;6.70;99.90;;;;;;5032401;28;20601;-72
2023/12/10 06:13:21;;;;;;;1.10;0.93;;;6.70;99.90;;;;;;5032394;28;20204;-71
2023/12/10 06:15:49;;;;;;;2.33;1.40;;;6.80;99.90;;;;;;5032023;28;20665;-71
2023/12/10 06:18:16;;;;;;;9.10;1.40;;;6.80;99.90;;;;;;5031818;28;20235;-70
2023/12/10 06:20:43;;;;;;;9.15;2.28;;;6.80;99.90;;;;;;5032349;28;20317;-71
2023/12/10 06:23:10;;;;;;;1.88;1.20;;;6.70;99.90;;;;;;5032335;28;20476;-71
2023/12/10 06:25:36;;;;;;;2.97;1.27;;;6.80;99.90;;;;;;5032496;28;20209;-70
2023/12/10 06:28:03;;;;;;;5.72;2.20;;;6.80;99.90;;;;;;5031820;28;20200;-71
2023/12/10 06:30:30;;;;;;;8.30;1.25;;;6.80;99.90;;;;;;5031927;28;20211;-72
2023/12/10 06:32:58;;;;;;;4.53;1.27;;;6.80;99.90;;;;;;5031894;28;20695;-72
2023/12/10 06:35:25;;;;;;;7.13;1.60;;;6.80;99.90;;;;;;5030793;28;20223;-71
2023/12/10 06:37:52;;;;;;;7.03;2.00;;;6.80;99.90;;;;;;5031618;28;20221;-72
2023/12/10 06:40:18;;;;;;;7.68;1.60;;;6.70;99.90;;;;;;5031961;28;20206;-72
2023/12/10 06:42:45;;;;;;;8.02;2.25;;;6.70;99.90;;;;;;5031556;28;20206;-71
2023/12/10 06:45:12;;;;;;;2.55;1.20;;;6.70;99.90;;;;;;5031526;28;20229;-71
2023/12/10 06:47:39;;;;;;;3.58;2.47;;;6.70;99.90;;;;;;5031479;28;20197;-72
2023/12/10 06:50:10;;;;;;;1.80;1.30;;;6.70;99.90;;;;;;5031685;28;20211;-71
2023/12/10 06:52:37;;;;;;;10.68;2.03;;;6.70;99.90;;;;;;5031862;28;20222;-72
2023/12/10 06:55:04;;;;;;;2.25;1.15;;;6.80;99.90;;;;;;5031628;28;20206;-72
2023/12/10 06:57:31;;;;;;;3.78;1.40;;;6.80;99.90;;;;;;5030639;28;20721;-71
2023/12/10 06:59:58;;;;;;;2.83;1.17;;;6.70;99.90;;;;;;5031045;28;20208;-71
2023/12/10 07:02:25;;;;;;;12.70;1.75;;;6.80;99.90;;;;;;5029615;28;20228;-71
2023/12/10 07:04:52;;;;;;;4.68;1.33;;;6.80;99.90;;;;;;5031377;28;20657;-72
2023/12/10 07:07:20;;;;;;;8.63;2.20;;;6.80;99.90;;;;;;5031445;28;20198;-71
2023/12/10 07:09:46;;;;;;;7.30;2.13;;;6.70;99.90;;;;;;5030252;28;20456;-71
2023/12/10 07:12:14;;;;;;;4.70;1.30;;;6.70;99.90;;;;;;5031491;28;20710;-73
2023/12/10 07:14:41;;;;;;;3.00;1.45;;;6.80;99.90;;;;;;5031293;28;20284;-71
2023/12/10 07:17:07;;;;;;;2.40;1.30;;;6.80;99.90;;;;;;5031170;28;20212;-71
2023/12/10 07:19:34;;;;;;;6.25;1.77;;;6.80;99.90;;;;;;5030921;28;20252;-72
2023/12/10 07:22:01;;;;;;;4.22;1.73;;;6.80;99.90;;;;;;5031148;28;20230;-72
2023/12/10 07:24:30;;;;;;;3.08;1.52;;;6.80;99.90;;;;;;5030136;28;20210;-72
2023/12/10 07:26:56;;;;;;;2.00;1.27;;;6.80;99.90;;;;;;5030845;28;20240;-72
2023/12/10 07:29:23;;;;;;;7.32;2.03;;;6.80;99.90;;;;;;5030431;28;20288;-72
2023/12/10 07:31:50;;;;;;;2.42;1.45;;;6.90;99.90;;;;;;5030715;28;20229;-73
2023/12/10 07:34:16;;;;;;;4.05;1.63;;;6.90;99.90;;;;;;5030887;28;20213;-73
2023/12/10 07:36:43;;;;;;;4.85;1.90;;;7.00;99.90;;;;;;5030342;28;20198;-73
2023/12/10 07:39:10;;;;;;;1.35;1.00;;;7.00;99.90;;;;;;5030123;28;20218;-73
2023/12/10 07:41:38;;;;;;;6.50;2.05;;;7.00;99.90;;;;;;5030654;28;20677;-73
2023/12/10 07:44:05;;;;;;;10.68;1.58;;;7.10;99.90;;;;;;5030963;28;20213;-73
2023/12/10 07:46:31;;;;;;;5.70;1.33;;;7.10;99.90;;;;;;5030477;28;20205;-72
2023/12/10 07:48:58;;;;;;;3.53;1.75;;;7.10;99.90;;;;;;5030373;28;20218;-73
2023/12/10 07:51:25;;;;;;;9.57;1.80;;;7.10;99.90;;;;;;5028195;28;20239;-73
2023/12/10 07:53:52;;;;;;;4.30;1.83;;;7.10;99.90;;;;;;5030648;28;20251;-73
2023/12/10 07:56:18;;;;;;;3.17;1.15;;;7.10;99.90;;;;;;5030977;28;20569;-72
2023/12/10 07:58:46;;;;;;;4.32;1.70;;;7.10;99.90;;;;;;5034494;28;20241;-74
2023/12/10 08:01:13;;;;;;;1.58;1.30;;;7.20;99.90;;;;;;5034867;28;20232;-74
2023/12/10 08:03:40;;;;;;;1.73;1.00;;;7.10;99.90;;;;;;5035103;28;20218;-74
2023/12/10 08:06:07;;;;;;;1.15;1.00;;;7.10;99.90;;;;;;5034680;28;20645;-73
2023/12/10 08:08:34;;;;;;;6.97;1.90;;;7.10;99.90;;;;;;5034284;28;20206;-73
2023/12/10 08:11:03;;;;;;;6.70;1.55;;;7.10;99.90;;;;;;5034396;28;20228;-73
2023/12/10 08:13:30;;;;;;;4.68;2.13;;;7.10;99.90;;;;;;5041381;28;20206;-73
2023/12/10 08:15:58;;;;;;;10.35;2.10;;;7.10;99.90;;;;;;5038173;28;20404;-74
2023/12/10 08:18:25;;;;;;;3.35;1.70;;;7.10;99.90;;;;;;5030894;28;20607;-74
2023/12/10 08:20:52;;;;;;;2.20;1.42;;;7.10;99.90;;;;;;5033789;28;20226;-74
2023/12/10 08:23:18;;;;;;;2.47;1.40;;;7.20;99.90;;;;;;5034091;28;20202;-74
2023/12/10 08:25:45;;;;;;;4.28;1.63;;;7.30;99.90;;;;;;5034116;28;20201;-73
2023/12/10 08:28:12;;;;;;;1.63;1.13;;;7.40;99.90;;;;;;5033525;28;20225;-73
2023/12/10 08:30:39;;;;;;;2.03;1.10;;;7.40;99.90;;;;;;5033527;28;20241;-74
2023/12/10 08:33:07;;;;;;;10.15;2.33;;;7.50;99.90;;;;;;5032639;28;20212;-73
2023/12/10 08:35:33;;;;;;;6.03;1.27;;;7.50;99.90;;;;;;5032875;28;20214;-74
2023/12/10 08:38:00;;;;;;;4.65;2.05;;;7.60;99.90;;;;;;5033355;28;20226;-73
2023/12/10 08:40:27;;;;;;;5.90;1.30;;;7.70;99.90;;;;;;5034111;28;20217;-74
2023/12/10 08:42:53;;;;;;;2.00;1.35;;;7.70;99.90;;;;;;5033975;28;20206;-73
2023/12/10 08:45:20;;;;;;;1.80;1.70;;;7.70;99.90;;;;;;5034090;28;20202;-73
2023/12/10 08:47:47;;;;;;;2.13;1.20;;;7.80;99.90;;;;;;5033273;28;20642;-73
2023/12/10 08:50:15;;;;;;;4.05;2.17;;;7.80;99.90;;;;;;5033987;28;20198;-74
2023/12/10 08:52:42;;;;;;;4.68;1.55;;;8.00;99.90;;;;;;5033642;28;20659;-74
2023/12/10 08:55:09;;;;;;;9.40;1.75;;;8.10;99.90;;;;;;5033835;28;20206;-73
2023/12/10 08:57:36;;;;;;;4.70;1.45;;;8.20;99.90;;;;;;5030872;28;20206;-73
2023/12/10 09:00:03;;;;;;;4.20;1.83;;;8.30;99.90;;;;;;5032792;28;20214;-74
2023/12/10 09:02:30;;;;;;;3.60;1.30;;;8.30;99.90;;;;;;5034513;28;20237;-73
2023/12/10 09:04:56;;;;;;;3.22;1.13;;;8.40;99.90;;;;;;5041389;28;20205;-74
2023/12/10 09:07:25;;;;;;;3.53;1.52;;;8.60;99.90;;;;;;5033510;28;20209;-74
2023/12/10 09:09:53;;;;;;;1.95;1.30;;;8.80;99.90;;;;;;5028482;28;20255;-73
2023/12/10 09:12:19;;;;;;;3.15;2.30;;;8.80;99.90;;;;;;5033260;28;20307;-74
2023/12/10 09:14:46;;;;;;;2.58;1.55;;;9.00;99.90;;;;;;5033174;28;20238;-74
2023/12/10 09:17:13;;;;;;;4.72;1.90;;;9.20;99.90;;;;;;5033312;28;20202;-74
2023/12/10 09:19:41;;;;;;;7.25;1.50;;;9.50;99.90;;;;;;5032655;28;20229;-75
2023/12/10 09:22:08;;;;;;;6.57;1.67;;;10.10;99.90;;;;;;5033336;28;20226;-74
2023/12/10 09:24:36;;;;;;;1.92;1.10;;;11.50;99.90;;;;;;5033255;28;20300;-73
2023/12/10 09:27:03;;;;;;;3.50;1.80;;;13.30;99.90;;;;;;5032592;28;20205;-74
2023/12/10 09:29:35;;;;;;;2.50;1.30;;;14.90;99.90;;;;;;5033078;28;20209;-74
2023/12/10 09:32:02;;;;;;;4.03;1.52;;;15.90;99.90;;;;;;5032721;28;20230;-74
2023/12/10 09:34:29;;;;;;;8.50;2.10;;;17.10;99.90;;;;;;5033011;28;20206;-73
2023/12/10 09:36:55;;;;;;;3.90;1.50;;;17.70;99.90;;;;;;5032690;28;20206;-74
2023/12/10 09:39:22;;;;;;;4.20;1.30;;;18.20;99.90;;;;;;5032265;28;20491;-75
2023/12/10 09:41:50;;;;;;;4.43;1.87;;;18.50;99.90;;;;;;5031765;28;20506;-75
2023/12/10 09:44:17;;;;;;;3.30;1.70;;;18.50;99.90;;;;;;5032894;28;20464;-75
2023/12/10 09:46:44;;;;;;;2.10;1.40;;;17.80;99.90;;;;;;5032104;28;20462;-75
2023/12/10 09:49:11;;;;;;;5.17;1.67;;;16.60;99.90;;;;;;5032417;28;20469;-75
2023/12/10 09:51:38;;;;;;;2.40;1.38;;;15.20;99.90;;;;;;5032627;28;20875;-74
2023/12/10 09:54:05;;;;;;;3.17;1.25;;;13.90;99.90;;;;;;5032612;28;20209;-75
2023/12/10 09:56:32;;;;;;;2.28;1.38;;;12.60;99.90;;;;;;5028452;28;20202;-73
2023/12/10 09:59:00;;;;;;;2.28;1.48;;;11.50;99.90;;;;;;5030075;28;20227;-73
2023/12/10 10:01:26;;;;;;;2.53;1.30;;;11.70;99.90;;;;;;5029384;28;20236;-73
2023/12/10 10:03:53;;;;;;;2.65;1.15;;;12.50;99.90;;;;;;5031769;28;20205;-74
2023/12/10 10:06:20;;;;;;;2.33;1.65;;;12.50;99.90;;;;;;5031244;28;20228;-74
2023/12/10 10:08:48;;;;;;;4.10;1.58;;;11.90;99.90;;;;;;5031720;28;20212;-74
2023/12/10 10:11:15;;;;;;;2.30;1.50;;;11.00;99.90;;;;;;5032295;28;20729;-73
2023/12/10 10:13:51;;;;;;;4.45;1.50;;;10.20;99.90;;;;;;5032130;28;20305;-73
2023/12/10 10:16:20;;;;;;;1.55;1.17;;;9.80;99.90;;;;;;5031987;28;20753;-73
2023/12/10 10:18:48;;;;;;;3.20;1.05;;;9.80;99.90;;;;;;5031193;28;20293;-74
2023/12/10 10:21:15;;;;;;;3.33;1.30;;;9.90;99.90;;;;;;5032185;28;20230;-73
2023/12/10 10:23:43;;;;;;;3.95;1.65;;;9.80;99.90;;;;;;5035904;28;20230;-73
2023/12/10 10:26:11;;;;;;;2.33;1.00;;;9.50;99.90;;;;;;5032228;28;20213;-73
2023/12/10 10:28:39;;;;;;;4.13;1.27;;;9.30;99.90;;;;;;5030547;28;20221;-73
2023/12/10 10:31:06;;;;;;;2.72;1.17;;;8.90;99.90;;;;;;5032908;28;20233;-73
2023/12/10 10:33:34;;;;;;;1.27;1.00;;;8.70;99.90;;;;;;5039106;28;20210;-73
2023/12/10 10:36:01;;;;;;;4.20;3.10;;;8.60;99.90;;;;;;5031492;28;20241;-74
2023/12/10 10:38:30;;;;;;;1.33;1.05;;;8.60;99.90;;;;;;5034931;28;20210;-75
2023/12/10 10:40:58;;;;;;;5.03;1.63;;;8.60;99.90;;;;;;5034898;28;20232;-73
2023/12/10 10:43:25;;;;;;;1.20;1.00;;;8.60;99.90;;;;;;5027476;28;20240;-75
2023/12/10 10:45:53;;;;;;;1.52;1.05;;;8.60;99.90;;;;;;5034454;28;20212;-73
2023/12/10 10:48:23;;;;;;;2.45;1.42;;;8.70;99.90;;;;;;5031301;28;20671;-74
2023/12/10 10:50:54;;;;;;;1.17;1.05;;;8.80;99.90;;;;;;5029604;28;20321;-73
2023/12/10 10:53:22;;;;;;;3.30;1.83;;;8.80;99.90;;;;;;5031195;28;20242;-74
2023/12/10 10:55:50;;;;;;;1.92;1.27;;;8.90;99.90;;;;;;5032973;28;20206;-74
2023/12/10 10:58:24;;;;;;;4.85;1.45;;;8.80;99.90;;;;;;5035683;28;20669;-73
2023/12/10 11:00:52;;;;;;;1.05;0.95;;;8.80;99.90;;;;;;5036730;28;20232;-73
2023/12/10 11:03:19;;;;;;;2.17;1.17;;;8.90;99.90;;;;;;5035578;28;20202;-74
2023/12/10 11:05:46;;;;;;;1.42;1.17;;;8.90;99.90;;;;;;5034356;28;20202;-74
2023/12/10 11:08:15;;;;;;;1.75;1.45;;;8.90;99.90;;;;;;5031547;28;20228;-74
2023/12/10 11:10:45;;;;;;;3.72;1.15;;;8.70;99.90;;;;;;5030855;28;20312;-74
2023/12/10 11:13:13;;;;;;;2.38;1.35;;;8.60;99.90;;;;;;5029671;28;20292;-74
2023/12/10 11:15:42;;;;;;;4.00;1.25;;;8.60;99.90;;;;;;5027777;28;20284;-75
2023/12/10 11:18:09;;;;;;;1.95;1.05;;;8.60;99.90;;;;;;5024648;28;20202;-74
2023/12/10 11:20:39;;;;;;;3.13;1.63;;;8.50;99.90;;;;;;5031343;28;20611;-74
2023/12/10 11:23:08;;;;;;;5.35;1.60;;;8.60;99.90;;;;;;5029599;28;20233;-73
2023/12/10 11:25:36;;;;;;;3.38;1.98;;;8.60;99.90;;;;;;5030801;28;20230;-73
2023/12/10 11:28:10;;;;;;;1.77;1.17;;;8.50;99.90;;;;;;5030198;28;20579;-74
2023/12/10 11:30:36;;;;;;;4.00;1.80;;;8.60;99.90;;;;;;5030980;28;20264;-73
2023/12/10 11:33:05;;;;;;;2.00;1.70;;;8.50;99.90;;;;;;5030285;28;20652;-74
2023/12/10 11:35:32;;;;;;;5.55;2.20;;;8.40;99.90;;;;;;5030621;28;20206;-73
2023/12/10 11:37:59;;;;;;;3.55;1.55;;;8.40;99.90;;;;;;5030221;28;20220;-73
2023/12/10 11:40:25;;;;;;;2.65;1.30;;;8.30;99.90;;;;;;5025051;28;20243;-72
2023/12/10 11:42:53;;;;;;;2.60;1.52;;;8.20;99.90;;;;;;5030464;28;20217;-73
2023/12/10 11:45:20;;;;;;;2.72;1.50;;;8.20;99.90;;;;;;5030794;28;20210;-73
2023/12/10 11:47:47;;;;;;;4.05;1.20;;;8.20;99.90;;;;;;5029747;28;20603;-73
2023/12/10 11:50:14;;;;;;;3.13;1.55;;;8.20;99.90;;;;;;5030546;28;20301;-73
2023/12/10 11:52:41;;;;;;;1.98;1.35;;;8.20;99.90;;;;;;5030592;28;20255;-75
2023/12/10 11:55:09;;;;;;;2.85;1.30;;;8.20;99.90;;;;;;5030255;28;20206;-72
2023/12/10 11:57:42;;;;;;;3.60;1.58;;;8.10;99.90;;;;;;5030203;28;20220;-73
2023/12/10 12:00:12;;;;;;;6.13;2.20;;;8.10;99.90;;;;;;5030441;28;20225;-74
2023/12/10 12:02:43;;;;;;;4.53;1.55;;;8.20;99.90;;;;;;5030319;28;20226;-74
2023/12/10 12:05:10;;;;;;;1.35;1.25;;;8.20;99.90;;;;;;5031025;28;20202;-73
2023/12/10 12:07:37;;;;;;;6.75;1.58;;;8.30;99.90;;;;;;5030817;28;20232;-73
2023/12/10 12:10:05;;;;;;;8.80;2.28;;;8.40;99.90;;;;;;5032706;28;20222;-73
2023/12/10 12:12:32;;;;;;;3.40;1.55;;;8.60;99.90;;;;;;5030710;28;20225;-73
2023/12/10 12:14:59;;;;;;;2.35;1.30;;;8.60;99.90;;;;;;5030020;28;20217;-73
2023/12/10 12:17:27;;;;;;;2.03;1.70;;;8.60;99.90;;;;;;5024176;28;20213;-73
2023/12/10 12:19:54;;;;;;;3.83;1.40;;;8.60;99.90;;;;;;5030005;28;20229;-74
2023/12/10 12:22:21;;;;;;;2.85;1.15;;;8.60;99.90;;;;;;5033106;28;20230;-73
2023/12/10 12:24:47;;;;;;;2.83;1.67;;;8.70;99.90;;;;;;5030740;28;20209;-73
2023/12/10 12:27:14;;;;;;;4.40;1.48;;;8.70;99.90;;;;;;5030318;28;20202;-74
2023/12/10 12:29:41;;;;;;;5.95;1.85;;;8.70;99.90;;;;;;5030309;28;20202;-73
2023/12/10 12:32:08;;;;;;;2.97;1.10;;;8.60;99.90;;;;;;5029556;28;20604;-74
2023/12/10 12:34:36;;;;;;;4.53;1.60;;;8.60;99.90;;;;;;5030520;28;20206;-74
2023/12/10 12:37:02;;;;;;;2.00;1.52;;;8.70;99.90;;;;;;5029511;28;20213;-75
2023/12/10 12:39:30;;;;;;;1.90;1.13;;;8.70;99.90;;;;;;5029923;28;20222;-74
2023/12/10 12:41:56;;;;;;;4.65;1.90;;;8.60;99.90;;;;;;5030101;28;20230;-73
2023/12/10 12:44:23;;;;;;;2.40;2.20;;;8.60;99.90;;;;;;5033483;28;20702;-73
2023/12/10 12:46:50;;;;;;;2.53;1.27;;;8.60;99.90;;;;;;5033697;28;20218;-74
2023/12/10 12:49:16;;;;;;;2.55;0.93;;;8.60;99.90;;;;;;5033505;28;20228;-74
2023/12/10 12:51:44;;;;;;;3.63;1.63;;;8.60;99.90;;;;;;5033888;28;20229;-73
2023/12/10 12:54:11;;;;;;;3.42;1.50;;;8.60;99.90;;;;;;5032833;28;20217;-73
2023/12/10 12:56:40;;;;;;;3.35;1.23;;;8.60;99.90;;;;;;5033559;28;20213;-74
2023/12/10 12:59:07;;;;;;;4.15;2.17;;;8.50;99.90;;;;;;5032776;28;20225;-74
2023/12/10 13:01:34;;;;;;;3.58;1.45;;;8.60;99.90;;;;;;5033326;28;20229;-74
2023/12/10 13:04:01;;;;;;;3.20;1.23;;;8.50;99.90;;;;;;5033074;28;20202;-74
2023/12/10 13:06:28;;;;;;;3.50;1.67;;;8.50;99.90;;;;;;5033254;28;20217;-74
2023/12/10 13:08:56;;;;;;;3.40;1.67;;;8.50;99.90;;;;;;5032673;28;20206;-74
2023/12/10 13:11:22;;;;;;;1.75;1.30;;;8.50;99.90;;;;;;5033162;28;20560;-74
2023/12/10 13:13:49;;;;;;;4.78;1.77;;;8.50;99.90;;;;;;5033186;28;20209;-75
2023/12/10 13:16:16;;;;;;;5.22;1.88;;;8.60;99.90;;;;;;5032763;28;20217;-74
2023/12/10 13:18:42;;;;;;;6.88;1.60;;;8.60;99.90;;;;;;5033159;28;20217;-73
2023/12/10 13:21:09;;;;;;;3.08;1.00;;;8.60;99.90;;;;;;5032524;28;20241;-75
2023/12/10 13:23:36;;;;;;;2.17;1.05;;;8.60;99.90;;;;;;5033052;28;20210;-74
2023/12/10 13:26:04;;;;;;;5.35;1.92;;;8.60;99.90;;;;;;5032102;28;20209;-75
2023/12/10 13:28:32;;;;;;;2.22;1.08;;;8.60;99.90;;;;;;5032786;28;20213;-74
2023/12/10 13:30:58;;;;;;;1.48;1.35;;;8.60;99.90;;;;;;5031978;28;20225;-74
2023/12/10 13:33:25;;;;;;;4.10;1.77;;;8.60;99.90;;;;;;5041527;28;20218;-74
2023/12/10 13:35:52;;;;;;;6.18;1.73;;;8.60;99.90;;;;;;5032591;28;20611;-74
2023/12/10 13:38:18;;;;;;;5.35;1.20;;;8.60;99.90;;;;;;5032178;28;20214;-74
2023/12/10 13:40:45;;;;;;;1.65;1.35;;;8.60;99.90;;;;;;5032718;28;20702;-74
2023/12/10 13:43:14;;;;;;;4.85;1.60;;;8.60;99.90;;;;;;5032421;28;20217;-75
2023/12/10 13:45:41;;;;;;;1.75;1.10;;;8.50;99.90;;;;;;5032552;28;20717;-76
2023/12/10 13:48:08;;;;;;;5.13;1.67;;;8.50;99.90;;;;;;5032411;28;20216;-74
2023/12/10 13:50:35;;;;;;;2.67;1.17;;;8.50;99.90;;;;;;5032838;28;20654;-74
2023/12/10 13:53:02;;;;;;;5.82;1.63;;;8.50;99.90;;;;;;5032206;28;20206;-74
2023/12/10 13:55:29;;;;;;;2.05;1.15;;;8.50;99.90;;;;;;5031563;28;20206;-74
2023/12/10 13:57:56;;;;;;;3.90;1.67;;;8.50;99.90;;;;;;5039933;28;20209;-74
2023/12/10 14:00:24;;;;;;;5.25;1.90;;;8.50;99.90;;;;;;5031860;28;20221;-74
2023/12/10 14:02:51;;;;;;;3.45;1.20;;;8.40;99.90;;;;;;5032591;28;20210;-74
2023/12/10 14:05:17;;;;;;;3.72;1.00;;;8.40;99.90;;;;;;5032789;28;20649;-73
2023/12/10 14:07:46;;;;;;;3.67;1.10;;;8.40;99.90;;;;;;5032988;28;20206;-73
2023/12/10 14:10:13;;;;;;;3.10;1.80;;;8.40;99.90;;;;;;5032686;28;20413;-73
2023/12/10 14:12:40;;;;;;;1.85;1.30;;;8.50;99.90;;;;;;5032667;28;20210;-73
2023/12/10 14:15:08;;;;;;;6.60;2.30;;;8.60;99.90;;;;;;5031767;28;20210;-73
2023/12/10 14:17:37;;;;;;;4.80;1.40;;;8.50;99.90;;;;;;5032004;28;20213;-74
2023/12/10 14:20:06;;;;;;;3.17;1.20;;;8.40;99.90;;;;;;5031868;28;20272;-74
2023/12/10 14:22:33;;;;;;;2.55;1.55;;;8.40;99.90;;;;;;5031708;28;20237;-74
2023/12/10 14:24:59;;;;;;;3.47;1.67;;;8.40;99.90;;;;;;5031874;28;20201;-74
2023/12/10 14:27:26;;;;;;;1.73;1.35;;;8.40;99.90;;;;;;5024446;28;20216;-75
2023/12/10 14:29:53;;;;;;;3.50;1.15;;;8.40;99.90;;;;;;5031605;28;20198;-74
2023/12/10 14:32:21;;;;;;;1.50;1.27;;;8.40;99.90;;;;;;5031082;28;20618;-73
2023/12/10 14:34:49;;;;;;;2.00;1.17;;;8.40;99.90;;;;;;5031812;28;20279;-74
2023/12/10 14:37:16;;;;;;;2.15;1.38;;;8.40;99.90;;;;;;5031025;28;20209;-74
2023/12/10 14:39:42;;;;;;;5.00;1.42;;;8.30;99.90;;;;;;5031453;28;20209;-74
2023/12/10 14:42:09;;;;;;;4.85;1.60;;;8.30;99.90;;;;;;5031311;28;20230;-75
2023/12/10 14:44:36;;;;;;;4.00;1.33;;;8.30;99.90;;;;;;5031611;28;20205;-73
2023/12/10 14:47:03;;;;;;;4.03;1.40;;;8.30;99.90;;;;;;5031323;28;20210;-73
2023/12/10 14:49:30;;;;;;;10.57;1.75;;;8.30;99.90;;;;;;5031269;28;20216;-74
2023/12/10 14:51:58;;;;;;;1.30;1.20;;;8.30;99.90;;;;;;5031490;28;20233;-74
2023/12/10 14:54:24;;;;;;;7.82;1.60;;;8.30;99.90;;;;;;5031592;28;20206;-73
2023/12/10 14:56:51;;;;;;;6.75;2.17;;;8.30;99.90;;;;;;5031278;28;20215;-73
2023/12/10 14:59:18;;;;;;;6.28;1.83;;;8.30;99.90;;;;;;5030736;28;20206;-75
2023/12/10 15:01:46;;;;;;;2.40;1.75;;;8.30;99.90;;;;;;5031163;28;20222;-73
2023/12/10 15:04:13;;;;;;;6.57;1.60;;;8.20;99.90;;;;;;5030474;28;20674;-74
2023/12/10 15:06:41;;;;;;;3.25;1.80;;;8.20;99.90;;;;;;5030883;28;20283;-73
2023/12/10 15:09:10;;;;;;;8.18;1.98;;;8.10;99.90;;;;;;5030194;28;20263;-74
2023/12/10 15:11:37;;;;;;;3.50;1.83;;;8.10;99.90;;;;;;5031441;28;20261;-74
2023/12/10 15:14:04;;;;;;;5.78;1.20;;;8.10;99.90;;;;;;5033328;28;20264;-73
2023/12/10 15:16:30;;;;;;;14.35;1.95;;;8.00;99.90;;;;;;5030819;28;20589;-73
2023/12/10 15:18:57;;;;;;;3.47;1.25;;;8.00;99.90;;;;;;5030665;28;20214;-74
2023/12/10 15:21:25;;;;;;;3.65;2.05;;;8.00;99.90;;;;;;5030400;28;20229;-73
2023/12/10 15:23:54;;;;;;;9.50;2.08;;;7.90;99.90;;;;;;5030792;28;20206;-73
2023/12/10 15:26:22;;;;;;;1.23;1.13;;;7.90;99.90;;;;;;5030215;28;20221;-73
2023/12/10 15:28:49;;;;;;;6.28;2.08;;;8.00;99.90;;;;;;5030532;28;20213;-73
2023/12/10 15:31:15;;;;;;;4.68;1.45;;;8.00;99.90;;;;;;5029909;28;20245;-74
2023/12/10 15:33:42;;;;;;;5.50;1.60;;;8.00;99.90;;;;;;5030959;28;20686;-73
2023/12/10 15:36:13;;;;;;;3.33;2.17;;;8.00;99.90;;;;;;5029922;28;20213;-73
2023/12/10 15:38:40;;;;;;;2.85;2.05;;;8.00;99.90;;;;;;5030351;28;20215;-73
2023/12/10 15:41:07;;;;;;;3.85;1.52;;;8.00;99.90;;;;;;5030417;28;20229;-73
2023/12/10 15:43:35;;;;;;;4.82;1.92;;;7.90;99.90;;;;;;5031015;28;20216;-73
2023/12/10 15:46:01;;;;;;;3.65;1.88;;;7.90;99.90;;;;;;5030086;28;20205;-73
2023/12/10 15:48:28;;;;;;;5.95;2.00;;;7.90;99.90;;;;;;5029799;28;20205;-73
2023/12/10 15:50:55;;;;;;;3.03;1.58;;;7.90;99.90;;;;;;5030595;28;20218;-73
2023/12/10 15:53:21;;;;;;;1.52;1.30;;;7.90;99.90;;;;;;5027194;28;20202;-73
2023/12/10 15:55:48;;;;;;;4.75;1.70;;;7.90;99.90;;;;;;5023438;28;20321;-73
2023/12/10 15:58:15;;;;;;;5.40;1.60;;;7.90;99.90;;;;;;5015839;28;20206;-75
2023/12/10 16:00:43;;;;;;;2.63;2.15;;;7.90;99.90;;;;;;5029615;28;20233;-73
2023/12/10 16:03:10;;;;;;;6.60;1.85;;;7.90;99.90;;;;;;5029707;28;20206;-74
2023/12/10 16:05:37;;;;;;;7.38;1.90;;;7.90;99.90;;;;;;5029834;28;20213;-73
2023/12/10 16:08:03;;;;;;;3.55;1.25;;;7.90;99.90;;;;;;5028746;28;20220;-72
2023/12/10 16:10:30;;;;;;;4.90;2.10;;;7.90;99.90;;;;;;5029624;28;20213;-73
2023/12/10 16:12:57;;;;;;;3.38;1.13;;;7.90;99.90;;;;;;5028272;28;20202;-72
2023/12/10 16:15:25;;;;;;;5.43;2.20;;;7.90;99.90;;;;;;5028731;28;20217;-73
2023/12/10 16:17:53;;;;;;;3.03;1.42;;;7.90;99.90;;;;;;5029787;28;20819;-72
2023/12/10 16:20:20;;;;;;;3.50;1.58;;;7.90;99.90;;;;;;5033296;28;20241;-75
2023/12/10 16:22:47;;;;;;;4.68;1.85;;;7.90;99.90;;;;;;5033544;28;20201;-75
2023/12/10 16:25:14;;;;;;;2.85;1.60;;;7.80;99.90;;;;;;5033552;28;20210;-73
2023/12/10 16:27:41;;;;;;;4.10;1.45;;;7.80;99.90;;;;;;5033558;28;20206;-73
2023/12/10 16:30:09;;;;;;;6.55;1.65;;;7.70;99.90;;;;;;5033578;28;20689;-73
2023/12/10 16:32:35;;;;;;;2.30;1.25;;;7.70;99.90;;;;;;5033539;28;20226;-73
2023/12/10 16:35:04;;;;;;;3.03;1.70;;;7.70;99.90;;;;;;5033488;28;20904;-72
2023/12/10 16:37:31;;;;;;;2.38;1.35;;;7.70;99.90;;;;;;5033124;28;20214;-72
2023/12/10 16:40:00;;;;;;;5.43;1.38;;;7.70;99.90;;;;;;5032850;28;20217;-73
2023/12/10 16:42:27;;;;;;;6.93;1.50;;;7.70;99.90;;;;;;5031058;28;20233;-72
2023/12/10 16:44:54;;;;;;;3.28;1.40;;;7.70;99.90;;;;;;5032898;28;20271;-73
2023/12/10 16:47:21;;;;;;;3.05;1.50;;;7.70;99.90;;;;;;5032576;28;20223;-73
2023/12/10 16:49:47;;;;;;;4.55;2.20;;;7.70;99.90;;;;;;5033048;28;20217;-73
2023/12/10 16:52:15;;;;;;;1.45;1.35;;;7.60;99.90;;;;;;5034682;28;20793;-74
2023/12/10 16:54:42;;;;;;;2.03;1.65;;;7.60;99.90;;;;;;5039050;28;20285;-73
2023/12/10 16:57:09;;;;;;;2.75;1.45;;;7.60;99.90;;;;;;5032936;28;20213;-73
2023/12/10 16:59:35;;;;;;;4.18;1.50;;;7.70;99.90;;;;;;5032540;28;20591;-73
2023/12/10 17:02:02;;;;;;;6.80;1.98;;;7.70;99.90;;;;;;5032769;28;20607;-74
2023/12/10 17:04:29;;;;;;;1.08;0.90;;;7.60;99.90;;;;;;5031515;28;20595;-73
2023/12/10 17:06:56;;;;;;;5.25;1.83;;;7.60;99.90;;;;;;5032187;28;20210;-73
2023/12/10 17:09:25;;;;;;;4.65;1.90;;;7.60;99.90;;;;;;5032209;28;20379;-74
2023/12/10 17:11:53;;;;;;;6.38;2.15;;;7.60;99.90;;;;;;5032475;28;20217;-74